Almo Heights, Kentucky
Current Conditions -  °F | °C
As of 6:15 PM on Saturday 20 Dec 2014 (Local Time) from KCEY Reporting Station
Clear Clear  
Wind Chill: 32°   Ceiling: Unl
Heat Index: 36°   Visibility: 10mi
Dew Point: 27°   Wind: 5mph
Humidity: 70%   Direction: 90°E
Pressure: 30.26"   Gusts: NA
Location:  36.7139°N, 88.3196°W
Report Text: KCEY 210015Z AUTO 09004KT 10SM CLR 02/M03 A3026 RMK AO1
Loading
Personal Weather Stations






























Interactive Weather Map New forecast layout! Learn more

10-Day Weather Forecast

Advertisements
Track Severe Weather on mobile